Latest Weather Observations for Kiama

IDN60801

Issued at 5:32 pm EDT Saturday 25 February 2017 (issued every 30 minutes, with the page automatically refreshed every 10 minutes)

About weather observations | Map of weather stations | Latest weather observations for NSW | Other Formats
Station Details ID: 068242 Name: KIAMA (BOMBO HEADLAND) Lat: -34.65 Lon: 150.86 Height: 15.5 m
Data from the previous 72 hours. | See also: Recent months at Kiama
Date/Time
EDT
Temp
°C
App
Temp
°C
Dew
Point
°C
Rel
Hum
%
Delta-T
°C
Wind Press
QNH
hPa
Press
MSL
hPa
Rain since
9am
mm
Dir  Spd
km/h
Gust
km/h
Spd
kts
Gust
kts
25/05:30pm 20.0 17.5 15.2 74 2.8 SSW 22 32 12 17 - - 0.0
25/05:00pm 20.1 17.1 14.7 71 3.2 SSW 24 32 13 17 - - 0.0
25/04:30pm 19.8 17.2 14.8 73 2.9 SSW 22 37 12 20 - - 0.0
25/04:00pm 19.7 15.6 14.9 74 2.8 SSW 30 41 16 22 - - 0.0
25/03:30pm 19.3 15.7 15.2 77 2.4 SSW 28 37 15 20 - - 0.0
25/03:00pm 19.1 14.6 15.0 77 2.4 SSW 32 48 17 26 - - 0.0
25/02:30pm 19.8 15.6 14.6 72 3.0 SSW 30 43 16 23 - - 0.0
25/02:00pm 20.2 16.9 15.0 72 3.1 SSW 26 37 14 20 - - 0.0
25/01:30pm 19.9 16.6 14.0 69 3.4 SSW 24 33 13 18 - - 0.0
25/01:00pm 19.8 16.9 14.0 69 3.3 SSW 22 32 12 17 - - 0.0
25/12:30pm 19.1 15.3 13.7 71 3.1 SSW 26 44 14 24 - - 0.0
25/12:00pm 18.8 16.0 14.3 75 2.6 SSW 22 35 12 19 - - 0.0
25/11:30am 18.6 15.9 14.5 77 2.4 SW 22 33 12 18 - - 0.0
25/11:00am 18.6 14.8 14.7 78 2.3 SSW 28 37 15 20 - - 0.0
25/10:30am 18.7 15.6 14.6 77 2.4 SSW 24 37 13 20 - - 0.0
25/10:00am 18.6 14.8 14.7 78 2.3 SSW 28 41 15 22 - - 0.0
25/09:30am 18.1 14.0 14.8 81 1.9 SSW 30 41 16 22 - - 0.0
25/09:00am 17.8 14.0 14.7 82 1.8 SSW 28 43 15 23 - - 2.0
25/08:30am 17.6 13.5 14.9 84 1.6 SSW 30 43 16 23 - - 2.0
25/08:00am 17.4 13.4 15.2 87 1.3 SSW 30 46 16 25 - - 2.0
25/07:52am 17.3 13.6 15.1 87 1.3 SSW 28 46 15 25 - - 2.0
25/07:30am 17.2 13.5 15.0 87 1.3 SSW 28 39 15 21 - - 2.0
25/07:00am 17.3 13.3 15.3 88 1.2 SSW 30 43 16 23 - - 2.0
25/06:30am 17.5 14.3 15.3 87 1.3 SSW 26 35 14 19 - - 2.0
25/06:00am 17.4 14.2 15.2 87 1.3 SSW 26 37 14 20 - - 2.0
25/05:30am 17.5 14.0 15.5 88 1.2 SSW 28 41 15 22 - - 2.0
25/05:00am 17.4 13.6 15.7 90 1.0 SSW 30 44 16 24 - - 2.0
25/04:30am 17.5 13.7 15.7 89 1.1 SSW 30 39 16 21 - - 2.0
25/04:00am 17.7 14.4 16.0 90 1.0 SSW 28 35 15 19 - - 2.0
25/03:30am 17.7 13.6 16.0 90 1.0 SSW 32 39 17 21 - - 2.0
25/03:00am 17.9 12.9 16.1 89 1.1 SSW 37 46 20 25 - - 2.0
25/02:30am 18.1 13.2 16.4 90 1.0 SSW 37 46 20 25 - - 2.0
25/02:00am 18.1 12.8 16.4 90 1.0 SSW 39 50 21 27 - - 2.0
25/01:30am 18.4 14.1 16.9 91 0.9 SSW 35 44 19 24 - - 2.0
25/01:00am 18.5 13.4 16.8 90 1.0 SSW 39 50 21 27 - - 2.0
25/12:30am 18.9 14.4 17.4 91 0.9 SSW 37 48 20 26 - - 1.8
25/12:00am 19.2 13.7 17.7 91 0.9 SSW 43 57 23 31 - - 1.4
 
Date/Time
EDT
Temp
°C
App
Temp
°C
Dew
Point
°C
Rel
Hum
%
Delta-T
°C
Wind Press
QNH
hPa
Press
MSL
hPa
Rain since
9am
mm
Dir  Spd
km/h
Gust
km/h
Spd
kts
Gust
kts
24/11:34pm 19.6 14.0 17.9 90 1.0 SSW 44 63 24 34 - - 1.2
24/11:30pm 19.8 14.5 18.1 90 1.1 SSW 43 54 23 29 - - 1.0
24/11:00pm 19.9 15.8 18.2 90 1.1 SSW 37 48 20 26 - - 0.6
24/10:30pm 20.1 17.0 18.4 90 1.1 SSW 32 46 17 25 - - 0.4
24/10:00pm 20.3 15.9 18.4 89 1.2 SSW 39 46 21 25 - - 0.2
24/09:30pm 20.5 17.8 18.4 88 1.3 SSW 30 43 16 23 - - 0.0
24/09:00pm 21.1 16.3 18.5 85 1.6 SSW 41 54 22 29 - - 0.0
24/08:30pm 21.3 18.3 18.7 85 1.6 SSW 32 41 17 22 - - 0.0
24/08:00pm 21.5 19.7 18.7 84 1.8 SSW 26 37 14 20 - - 0.0
24/07:30pm 21.6 21.4 18.6 83 1.9 SW 17 32 9 17 - - 0.0
24/07:00pm 21.6 19.6 18.4 82 2.0 SSW 26 33 14 18 - - 0.0
24/06:30pm 21.5 19.2 18.5 83 1.9 SSW 28 37 15 20 - - 0.0
24/06:00pm 21.7 20.5 18.5 82 2.0 SSW 22 30 12 16 - - 0.0
24/05:30pm 21.6 18.4 18.2 81 2.1 SSW 32 37 17 20 - - 0.0
24/05:00pm 21.6 18.4 18.2 81 2.1 S 32 41 17 22 - - 0.0
24/04:30pm 21.8 18.6 18.2 80 2.2 S 32 41 17 22 - - 0.0
24/04:00pm 22.3 19.8 18.1 77 2.6 S 28 37 15 20 - - 0.0
24/03:30pm 22.2 20.0 17.8 76 2.7 S 26 35 14 19 - - 0.0
24/03:00pm 21.7 18.4 17.9 79 2.4 S 32 39 17 21 - - 0.0
24/02:30pm 22.0 19.1 18.0 78 2.5 S 30 39 16 21 - - 0.0
24/02:00pm 21.4 18.5 18.0 81 2.1 S 30 37 16 20 - - 0.0
24/01:30pm 21.5 18.6 17.9 80 2.2 S 30 39 16 21 - - 0.0
24/01:00pm 21.6 19.3 17.6 78 2.5 S 26 33 14 18 - - 0.0
24/12:30pm 21.9 19.3 17.7 77 2.6 S 28 37 15 20 - - 0.0
24/12:00pm 22.5 20.3 17.8 75 2.9 S 26 35 14 19 - - 0.0
24/11:30am 22.9 21.2 18.0 74 3.1 S 24 32 13 17 - - 0.0
24/11:00am 22.8 22.0 18.1 75 2.9 SSW 19 24 10 13 - - 0.0
24/10:30am 22.7 21.3 18.0 75 2.9 SSW 22 30 12 16 - - 0.0
24/10:00am 22.8 22.6 18.6 77 2.6 SW 17 22 9 12 - - 0.0
24/09:30am 22.1 21.4 18.3 79 2.4 SSW 19 28 10 15 - - 0.0
24/09:00am 21.9 21.1 18.1 79 2.4 SW 19 24 10 13 - - 0.0
24/08:30am 21.7 22.9 18.3 81 2.1 SSW 9 13 5 7 - - -
24/08:00am 21.5 22.4 18.5 83 1.9 SW 11 15 6 8 - - -
24/07:30am 21.1 21.9 18.1 83 1.9 SW 11 20 6 11 - - -
24/07:00am 21.1 21.1 18.1 83 1.9 SSW 15 20 8 11 - - -
24/06:30am 21.1 22.3 18.3 84 1.7 SSW 9 17 5 9 - - -
24/06:00am 21.1 22.0 18.3 84 1.7 SSW 11 17 6 9 - - -
24/05:30am 21.2 21.0 18.4 84 1.7 SSW 17 26 9 14 - - -
24/05:00am 21.2 21.9 18.8 86 1.5 SSW 13 20 7 11 - - -
24/04:30am 20.6 20.4 18.5 88 1.3 S 17 22 9 12 - - -
24/04:00am 20.5 20.3 18.6 89 1.2 S 17 22 9 12 - - -
24/03:30am 20.4 19.8 18.5 89 1.2 SSE 19 20 10 11 - - -
24/03:00am 21.2 20.6 18.8 86 1.5 SSE 20 24 11 13 - - 0.0
24/02:30am 21.3 20.9 18.9 86 1.5 SSE 19 24 10 13 - - -
24/02:00am 21.4 20.7 18.2 82 2.0 SSE 19 20 10 11 - - -
24/01:30am 21.8 22.4 17.8 78 2.5 SE 11 19 6 10 - - -
24/01:00am 21.5 23.5 17.9 80 2.2 SSE 4 7 2 4 - - -
24/12:30am 21.4 22.7 17.2 77 2.6 NNW 6 11 3 6 - - -
24/12:00am 21.6 22.7 17.2 76 2.7 N 7 11 4 6 - - -
 
Date/Time
EDT
Temp
°C
App
Temp
°C
Dew
Point
°C
Rel
Hum
%
Delta-T
°C
Wind Press
QNH
hPa
Press
MSL
hPa
Rain since
9am
mm
Dir  Spd
km/h
Gust
km/h
Spd
kts
Gust
kts
23/11:30pm 21.8 22.6 17.2 75 2.8 N 9 13 5 7 - - -
23/11:00pm 22.1 22.9 17.2 74 3.0 N 9 17 5 9 - - -
23/10:30pm 22.6 22.6 17.1 71 3.4 N 13 20 7 11 - - -
23/10:00pm 23.1 22.6 16.9 68 3.8 N 15 28 8 15 - - -
23/09:30pm 22.7 21.5 17.4 72 3.3 N 20 28 11 15 - - -
23/09:00pm 22.8 22.7 17.9 74 3.1 N 15 22 8 12 - - 0.0
23/08:30pm 22.6 20.9 18.2 76 2.8 N 24 32 13 17 - - -
23/08:00pm 22.9 21.2 18.2 75 2.9 N 24 35 13 19 - - -
23/07:30pm 23.3 21.5 18.8 76 2.8 N 26 41 14 22 - - -
23/07:00pm 23.2 22.0 19.2 78 2.5 N 24 35 13 19 - - -
23/06:30pm 23.5 22.8 19.4 78 2.6 N 22 33 12 18 - - -
23/06:00pm 23.8 23.0 19.3 76 2.9 N 22 33 12 18 - - -
23/05:30pm 24.2 23.4 19.3 74 3.1 N 22 33 12 18 - - -
23/05:00pm 24.3 22.7 19.1 73 3.3 N 26 37 14 20 - - -
23/04:30pm 24.6 23.4 19.2 72 3.5 N 24 37 13 20 - - -
23/04:00pm 24.6 23.0 19.2 72 3.5 N 26 35 14 19 - - -
23/03:30pm 25.0 23.5 19.4 71 3.6 N 26 35 14 19 - - -
23/03:00pm 25.0 23.4 19.1 70 3.8 NNE 26 37 14 20 - - -
23/02:30pm 24.8 - 18.5 68 4.0 - - - - - - - -
23/01:30pm 25.0 23.9 18.7 68 4.0 NNE 22 33 12 18 - - 0.0
23/01:00pm 24.9 24.5 18.8 69 3.9 NNE 19 26 10 14 - - 0.0
23/12:30pm 24.5 23.9 18.9 71 3.6 NNE 20 33 11 18 - - 0.0
23/12:00pm 24.1 22.3 18.7 72 3.4 NNE 26 37 14 20 - - 0.0
23/11:30am 23.9 22.0 18.5 72 3.4 NNE 26 37 14 20 - - 0.0
23/11:00am 24.0 23.1 18.2 70 3.6 NNE 20 30 11 16 - - 0.0
23/10:30am 23.7 22.7 17.9 70 3.6 NNE 20 26 11 14 - - 0.0
23/10:00am 23.1 21.8 17.3 70 3.6 NNE 20 28 11 15 - - 0.0
23/09:30am 23.1 22.6 17.8 72 3.3 NNE 17 24 9 13 - - 0.0
23/09:00am 22.6 22.4 17.5 73 3.2 NNE 15 19 8 10 - - 0.0
23/08:30am 21.9 21.6 17.3 75 2.8 N 15 20 8 11 - - 0.0
23/08:00am 21.0 22.1 17.2 79 2.3 N 7 13 4 7 - - 0.0
23/07:30am 20.1 19.9 16.7 81 2.1 NNW 13 19 7 10 - - 0.0
23/07:00am 19.7 19.1 16.7 83 1.8 NNW 15 20 8 11 - - 0.0
23/06:30am 19.1 19.1 16.3 84 1.7 NW 11 15 6 8 - - 0.0
23/06:00am 19.6 19.7 16.4 82 1.9 NNW 11 17 6 9 - - 0.0
23/05:30am 19.5 20.3 16.3 82 1.9 NNW 7 11 4 6 - - 0.0
23/05:00am 19.7 20.1 16.3 81 2.0 NNW 9 13 5 7 - - 0.0
23/04:30am 19.9 20.7 16.3 80 2.2 NNW 7 17 4 9 - - 0.0
23/04:00am 20.2 21.1 16.6 80 2.2 NNW 7 11 4 6 - - 0.0
23/03:30am 20.1 21.2 16.5 80 2.2 NNW 6 9 3 5 - - 0.0
23/03:00am 20.4 21.9 16.6 79 2.3 N 4 7 2 4 - - 0.0
23/02:30am 21.4 20.9 17.0 76 2.7 N 15 22 8 12 - - 0.0
23/02:00am 21.0 22.2 16.8 77 2.6 N 6 11 3 6 - - 0.0
23/01:30am 21.2 22.3 17.0 77 2.6 N 7 11 4 6 - - 0.0
23/01:00am 21.6 22.7 17.2 76 2.7 N 7 13 4 7 - - 0.0
23/12:30am 21.8 22.9 17.2 75 2.8 N 7 13 4 7 - - 0.0
23/12:00am 22.1 22.5 17.2 74 3.0 N 11 17 6 9 - - 0.0
 
Date/Time
EDT
Temp
°C
App
Temp
°C
Dew
Point
°C
Rel
Hum
%
Delta-T
°C
Wind Press
QNH
hPa
Press
MSL
hPa
Rain since
9am
mm
Dir  Spd
km/h
Gust
km/h
Spd
kts
Gust
kts
22/11:30pm 22.5 22.6 17.4 73 3.1 N 13 22 7 12 - - 0.0
22/11:00pm 22.7 22.4 17.4 72 3.3 N 15 22 8 12 - - 0.0
22/10:30pm 23.0 23.1 17.5 71 3.4 N 13 20 7 11 - - 0.0
22/10:00pm 23.4 21.9 17.6 70 3.6 N 22 33 12 18 - - 0.0
22/09:30pm 23.6 22.5 17.8 70 3.6 N 20 37 11 20 - - 0.0
22/09:00pm 23.6 22.2 18.0 71 3.5 N 22 35 12 19 - - 0.0
22/08:30pm 23.4 21.3 18.1 72 3.3 N 26 35 14 19 - - 0.0
22/08:00pm 23.4 20.2 18.1 72 3.3 N 32 41 17 22 - - 0.0
22/07:30pm 23.3 21.3 18.4 74 3.1 N 26 33 14 18 - - 0.0
22/07:00pm 23.6 21.3 18.5 73 3.2 N 28 35 15 19 - - 0.0
22/06:30pm 24.1 22.6 17.8 68 3.9 NNE 22 32 12 17 - - 0.0
22/06:00pm 24.5 22.6 17.7 66 4.3 NNE 24 35 13 19 - - 0.0

Other Formats:

Comma delimited format used in spreadsheet applications
http://www.bom.gov.au/fwo/IDN60801/IDN60801.95749.axf

JavaScript Object Notation format (JSON) in row-major order
http://www.bom.gov.au/fwo/IDN60801/IDN60801.95749.json